createdAt,value
2019-05-29T00:01:50.385Z,0.00
2019-05-29T00:07:50.371Z,0.00
2019-05-29T00:13:50.365Z,0.00
2019-05-29T00:19:50.287Z,0.00
2019-05-29T00:25:50.287Z,0.00
2019-05-29T00:31:50.297Z,0.00
2019-05-29T00:37:50.264Z,0.00
2019-05-29T00:43:50.370Z,0.00
2019-05-29T00:49:50.375Z,0.00
2019-05-29T00:55:50.310Z,0.00
2019-05-29T01:01:50.345Z,0.00
2019-05-29T01:07:50.309Z,0.00
2019-05-29T01:13:51.334Z,0.00
2019-05-29T01:19:50.588Z,0.00
2019-05-29T01:25:50.373Z,0.00
2019-05-29T01:31:50.336Z,0.00
2019-05-29T01:37:50.306Z,0.00
2019-05-29T01:43:50.467Z,0.00
2019-05-29T01:49:50.438Z,0.00
2019-05-29T01:55:50.397Z,0.00
2019-05-29T02:01:50.358Z,0.00
2019-05-29T02:07:50.378Z,0.00
2019-05-29T02:13:50.332Z,0.00
2019-05-29T02:19:50.351Z,0.00
2019-05-29T02:25:50.352Z,0.00
2019-05-29T02:31:50.391Z,0.00
2019-05-29T02:37:50.434Z,0.00
2019-05-29T02:43:50.398Z,0.00
2019-05-29T02:49:50.406Z,0.00
2019-05-29T02:55:50.396Z,0.00
2019-05-29T03:01:50.406Z,0.00
2019-05-29T03:07:50.401Z,0.09
2019-05-29T03:13:50.424Z,0.00
2019-05-29T03:19:50.433Z,0.00
2019-05-29T03:25:50.421Z,0.05
2019-05-29T03:31:50.451Z,0.05
2019-05-29T03:37:50.395Z,0.06
2019-05-29T03:43:50.502Z,0.12
2019-05-29T03:49:50.417Z,0.03
2019-05-29T03:55:50.431Z,0.03
2019-05-29T04:01:50.394Z,0.00
2019-05-29T04:07:50.410Z,0.03
2019-05-29T04:13:50.397Z,0.04
2019-05-29T04:19:50.427Z,0.04
2019-05-29T04:25:50.489Z,0.03
2019-05-29T04:31:50.523Z,0.13
2019-05-29T04:37:50.480Z,0.02
2019-05-29T04:43:50.530Z,0.04
2019-05-29T04:49:50.456Z,0.17
2019-05-29T05:09:39.638Z,0.00
2019-05-29T05:15:40.159Z,0.05
2019-05-29T05:21:40.235Z,0.00
2019-05-29T05:27:39.102Z,0.05
2019-05-29T05:33:39.069Z,0.00
2019-05-29T05:39:39.154Z,0.00
2019-05-29T05:45:39.246Z,0.02
2019-05-29T05:51:42.468Z,0.00
2019-05-29T05:57:39.745Z,0.00
2019-05-29T06:03:40.604Z,0.00
2019-05-29T06:09:40.320Z,0.00
2019-05-29T06:15:39.098Z,0.03
2019-05-29T06:21:39.262Z,0.00
2019-05-29T06:27:39.326Z,0.00
2019-05-29T06:33:39.496Z,0.00
2019-05-29T06:39:39.662Z,0.00
2019-05-29T06:45:39.985Z,0.00
2019-05-29T06:51:41.342Z,0.00
2019-05-29T06:57:40.281Z,0.19
2019-05-29T07:03:39.677Z,0.23
2019-05-29T07:09:39.196Z,0.26
2019-05-29T07:15:40.499Z,0.08
2019-05-29T07:21:40.460Z,0.06
2019-05-29T07:27:39.185Z,0.24
2019-05-29T07:33:39.203Z,0.10
2019-05-29T07:39:39.445Z,0.13
2019-05-29T07:45:40.666Z,0.24
2019-05-29T07:51:40.488Z,0.20
2019-05-29T07:57:40.688Z,0.36
2019-05-29T08:03:39.409Z,0.43
2019-05-29T08:09:39.358Z,0.46
2019-05-29T08:15:54.072Z,0.41
2019-05-29T08:21:40.977Z,0.69
2019-05-29T08:27:40.461Z,0.31
2019-05-29T08:33:39.184Z,0.37
2019-05-29T08:39:39.231Z,0.33
2019-05-29T08:45:39.313Z,0.31
2019-05-29T08:51:39.369Z,0.04
2019-05-29T08:57:39.252Z,0.22
2019-05-29T09:03:39.197Z,0.10
2019-05-29T09:09:39.308Z,0.02
2019-05-29T09:15:39.233Z,0.14
2019-05-29T09:21:39.345Z,0.00
2019-05-29T09:27:39.190Z,0.43
2019-05-29T09:33:39.222Z,0.05
2019-05-29T09:39:39.224Z,0.38
2019-05-29T09:45:39.218Z,0.24
2019-05-29T09:51:39.318Z,0.44
2019-05-29T09:57:39.226Z,0.71
2019-05-29T10:03:39.306Z,0.71
2019-05-29T10:09:39.280Z,0.03
2019-05-29T10:15:39.229Z,0.80
2019-05-29T10:21:41.005Z,0.23
2019-05-29T10:27:39.253Z,0.39
2019-05-29T10:33:39.323Z,0.36
2019-05-29T10:39:39.323Z,0.69
2019-05-29T10:45:39.285Z,0.54
2019-05-29T10:51:54.626Z,0.09
2019-05-29T10:57:39.339Z,0.56
2019-05-29T11:03:39.337Z,0.63
2019-05-29T11:09:44.586Z,0.49
2019-05-29T11:15:39.376Z,0.59
2019-05-29T11:21:39.340Z,0.33
2019-05-29T11:27:39.297Z,0.93
2019-05-29T11:33:39.299Z,0.71
2019-05-29T11:39:39.315Z,0.48
2019-05-29T11:45:39.366Z,0.22
2019-05-29T11:51:43.511Z,0.64
2019-05-29T11:57:39.810Z,0.84
2019-05-29T12:04:06.254Z,0.54
2019-05-29T12:09:39.360Z,0.45
2019-05-29T12:15:39.443Z,0.37
2019-05-29T12:21:42.611Z,0.35
2019-05-29T12:27:39.541Z,0.06
2019-05-29T12:33:39.351Z,0.19
2019-05-29T12:39:39.493Z,0.28
2019-05-29T12:45:39.430Z,0.73
2019-05-29T12:51:39.518Z,0.47
2019-05-29T12:57:39.937Z,0.43
2019-05-29T13:03:39.498Z,1.09
2019-05-29T13:09:39.693Z,1.11
2019-05-29T13:15:39.419Z,1.77
2019-05-29T13:21:39.434Z,2.89
2019-05-29T13:27:39.399Z,1.88
2019-05-29T13:33:39.439Z,2.05
2019-05-29T13:39:39.408Z,1.56
2019-05-29T13:45:39.438Z,1.66
2019-05-29T13:51:39.424Z,1.22
2019-05-29T13:57:39.966Z,1.06
2019-05-29T14:03:39.427Z,1.72
2019-05-29T14:09:39.474Z,1.90
2019-05-29T14:15:39.469Z,1.57
2019-05-29T14:21:39.482Z,1.78
2019-05-29T14:27:39.459Z,1.12
2019-05-29T14:33:39.440Z,2.19
2019-05-29T14:39:39.447Z,0.96
2019-05-29T14:45:39.686Z,0.67
2019-05-29T14:51:39.788Z,0.58
2019-05-29T14:57:39.465Z,0.50
2019-05-29T15:03:39.477Z,0.41
2019-05-29T15:09:39.757Z,0.59
2019-05-29T15:15:39.491Z,0.60
2019-05-29T15:21:39.547Z,0.53
2019-05-29T15:27:39.505Z,0.40
2019-05-29T15:33:39.480Z,1.92
2019-05-29T15:39:39.560Z,1.04
2019-05-29T15:45:39.610Z,0.39
2019-05-29T15:51:39.627Z,0.74
2019-05-29T15:57:39.519Z,1.67
2019-05-29T16:03:39.529Z,1.07
2019-05-29T16:09:39.547Z,0.61
2019-05-29T16:15:39.568Z,0.66
2019-05-29T16:21:39.663Z,0.74
2019-05-29T16:27:39.585Z,0.67
2019-05-29T16:33:39.612Z,0.97
2019-05-29T16:39:39.545Z,1.21
2019-05-29T16:45:39.640Z,1.21
2019-05-29T16:51:41.983Z,1.63
2019-05-29T16:57:39.726Z,1.50
2019-05-29T17:03:39.565Z,1.56
2019-05-29T17:09:39.662Z,1.03
2019-05-29T17:15:39.599Z,0.42
2019-05-29T17:21:39.609Z,0.94
2019-05-29T17:27:39.640Z,0.85
2019-05-29T17:33:39.586Z,1.21
2019-05-29T17:39:39.633Z,0.75
2019-05-29T17:45:39.682Z,0.61
2019-05-29T17:51:39.744Z,0.39
2019-05-29T17:57:39.616Z,0.28
2019-05-29T18:03:39.649Z,0.14
2019-05-29T18:09:39.731Z,0.01
2019-05-29T18:15:39.696Z,0.01
2019-05-29T18:21:39.645Z,0.00
2019-05-29T18:27:40.831Z,0.00
2019-05-29T18:33:39.657Z,0.02
2019-05-29T18:39:39.639Z,0.00
2019-05-29T18:45:39.644Z,0.00
2019-05-29T18:51:39.647Z,0.09
2019-05-29T18:57:39.782Z,0.29
2019-05-29T19:03:40.656Z,0.16
2019-05-29T19:09:39.705Z,0.14
2019-05-29T19:15:39.759Z,0.04
2019-05-29T19:21:39.743Z,0.01
2019-05-29T19:27:42.093Z,0.09
2019-05-29T19:33:40.069Z,0.05
2019-05-29T19:39:39.767Z,0.19
2019-05-29T19:45:39.685Z,0.10
2019-05-29T19:51:39.750Z,0.17
2019-05-29T19:57:54.892Z,0.08
2019-05-29T20:03:39.715Z,0.07
2019-05-29T20:09:39.753Z,0.00
2019-05-29T20:15:39.719Z,0.21
2019-05-29T20:21:39.688Z,0.34
2019-05-29T20:27:39.746Z,0.21
2019-05-29T20:33:39.735Z,0.51
2019-05-29T20:39:39.773Z,0.30
2019-05-29T20:45:39.813Z,0.29
2019-05-29T20:51:40.359Z,0.13
2019-05-29T20:57:40.122Z,0.49
2019-05-29T21:03:40.898Z,0.18
2019-05-29T21:09:41.068Z,0.59
2019-05-29T21:15:39.800Z,0.41
2019-05-29T21:21:40.914Z,0.82
2019-05-29T21:27:43.828Z,0.80
2019-05-29T21:33:43.488Z,0.50
2019-05-29T21:39:40.269Z,0.14
2019-05-29T21:45:40.962Z,0.53
2019-05-29T21:51:39.822Z,0.01
2019-05-29T21:57:42.358Z,0.19
2019-05-29T22:03:40.317Z,0.01
2019-05-29T22:09:39.790Z,0.10
2019-05-29T22:15:39.775Z,0.05
2019-05-29T22:21:39.867Z,0.00
2019-05-29T22:27:39.871Z,0.00
2019-05-29T22:33:39.805Z,0.11
2019-05-29T22:39:39.791Z,0.07
2019-05-29T22:45:39.809Z,0.00
2019-05-29T22:51:39.802Z,0.00
2019-05-29T22:57:39.855Z,0.00
2019-05-29T23:03:39.829Z,0.03
2019-05-29T23:09:39.917Z,0.12
2019-05-29T23:15:39.818Z,0.00
2019-05-29T23:21:39.840Z,0.12
2019-05-29T23:27:39.883Z,0.02
2019-05-29T23:33:39.917Z,0.00
2019-05-29T23:39:39.845Z,0.00
2019-05-29T23:45:39.834Z,0.00
2019-05-29T23:51:40.002Z,0.00
2019-05-29T23:57:39.851Z,0.00
